Terminal Aerodrome Forecast
Issued by NWS

Home | Current Version | Previous Version | Text Only | Print | Product List | Glossary On
Versions: 1 2 3 4 5 6 7 8 9 10 11 12 13 14 15 16 17 18 19 20 21 22 23 24 25
000
FTUS46 KSGX 210500
TAFSAN
TAF
KSAN 210520Z 2106/2212 29005KT P6SM SCT020 SCT150
     FM210800 VRB03KT P6SM OVC020
     FM211600 VRB04KT P6SM SCT020 SCT100
     FM211800 28009KT P6SM SCT100
     FM220200 VRB04KT P6SM SCT015
     FM220600 VRB04KT P6SM OVC015=

USA.gov is the U.S. government's official web portal to all federal, state and local government web resources and services.